sensor_id;sensor_type;location;lat;lon;timestamp;P1;durP1;ratioP1;P2;durP2;ratioP2
43554;SDS011;35085;40.398;-3.702;2022-07-21T00:06:16;12.93;;;3.05;;
43554;SDS011;35085;40.398;-3.702;2022-07-21T00:16:45;8.70;;;3.65;;
43554;SDS011;35085;40.398;-3.702;2022-07-21T00:26:54;6.88;;;3.10;;
43554;SDS011;35085;40.398;-3.702;2022-07-21T00:37:23;7.47;;;2.80;;
43554;SDS011;35085;40.398;-3.702;2022-07-21T00:47:32;5.25;;;2.50;;
43554;SDS011;35085;40.398;-3.702;2022-07-21T00:58:03;7.35;;;2.38;;
43554;SDS011;35085;40.398;-3.702;2022-07-21T01:08:12;6.18;;;2.50;;
43554;SDS011;35085;40.398;-3.702;2022-07-21T01:18:42;7.85;;;2.45;;
43554;SDS011;35085;40.398;-3.702;2022-07-21T01:28:53;6.13;;;2.20;;
43554;SDS011;35085;40.398;-3.702;2022-07-21T01:39:26;4.70;;;2.53;;
43554;SDS011;35085;40.398;-3.702;2022-07-21T01:50:01;4.40;;;2.17;;
43554;SDS011;35085;40.398;-3.702;2022-07-21T02:00:29;2.97;;;1.90;;
43554;SDS011;35085;40.398;-3.702;2022-07-21T02:10:39;4.15;;;1.90;;
43554;SDS011;35085;40.398;-3.702;2022-07-21T02:21:08;4.30;;;2.00;;
43554;SDS011;35085;40.398;-3.702;2022-07-21T02:31:18;2.45;;;1.83;;
43554;SDS011;35085;40.398;-3.702;2022-07-21T02:41:52;5.05;;;2.03;;
43554;SDS011;35085;40.398;-3.702;2022-07-21T02:52:02;4.88;;;1.65;;
43554;SDS011;35085;40.398;-3.702;2022-07-21T03:02:33;4.88;;;2.00;;
43554;SDS011;35085;40.398;-3.702;2022-07-21T03:12:44;2.50;;;2.03;;
43554;SDS011;35085;40.398;-3.702;2022-07-21T03:23:15;4.35;;;2.13;;
43554;SDS011;35085;40.398;-3.702;2022-07-21T03:33:24;7.70;;;2.10;;
43554;SDS011;35085;40.398;-3.702;2022-07-21T03:43:55;6.03;;;2.00;;
43554;SDS011;35085;40.398;-3.702;2022-07-21T03:54:03;4.68;;;1.90;;
43554;SDS011;35085;40.398;-3.702;2022-07-21T04:04:33;6.70;;;2.42;;
43554;SDS011;35085;40.398;-3.702;2022-07-21T04:15:02;4.95;;;3.00;;
43554;SDS011;35085;40.398;-3.702;2022-07-21T04:25:34;5.15;;;3.28;;
43554;SDS011;35085;40.398;-3.702;2022-07-21T04:35:44;5.40;;;3.10;;
43554;SDS011;35085;40.398;-3.702;2022-07-21T04:46:13;6.43;;;4.32;;
43554;SDS011;35085;40.398;-3.702;2022-07-21T04:56:25;8.27;;;4.40;;
43554;SDS011;35085;40.398;-3.702;2022-07-21T05:06:56;10.32;;;5.50;;
43554;SDS011;35085;40.398;-3.702;2022-07-21T05:17:24;8.80;;;5.25;;
43554;SDS011;35085;40.398;-3.702;2022-07-21T05:28:14;6.53;;;4.75;;
43554;SDS011;35085;40.398;-3.702;2022-07-21T05:38:43;12.45;;;5.03;;
43554;SDS011;35085;40.398;-3.702;2022-07-21T05:49:19;9.18;;;4.05;;
43554;SDS011;35085;40.398;-3.702;2022-07-21T05:59:31;10.82;;;4.40;;
43554;SDS011;35085;40.398;-3.702;2022-07-21T06:10:03;21.90;;;4.75;;
43554;SDS011;35085;40.398;-3.702;2022-07-21T06:20:13;7.43;;;3.97;;
43554;SDS011;35085;40.398;-3.702;2022-07-21T06:30:43;4.63;;;3.90;;
43554;SDS011;35085;40.398;-3.702;2022-07-21T06:40:52;10.68;;;3.63;;
43554;SDS011;35085;40.398;-3.702;2022-07-21T06:51:21;10.60;;;3.88;;
43554;SDS011;35085;40.398;-3.702;2022-07-21T07:01:30;4.43;;;3.08;;
43554;SDS011;35085;40.398;-3.702;2022-07-21T07:12:01;14.13;;;3.65;;
43554;SDS011;35085;40.398;-3.702;2022-07-21T07:22:14;7.80;;;3.47;;
43554;SDS011;35085;40.398;-3.702;2022-07-21T07:32:44;6.30;;;3.00;;
43554;SDS011;35085;40.398;-3.702;2022-07-21T07:42:54;5.55;;;2.55;;
43554;SDS011;35085;40.398;-3.702;2022-07-21T07:53:25;8.35;;;2.75;;
43554;SDS011;35085;40.398;-3.702;2022-07-21T08:03:35;4.63;;;2.03;;
43554;SDS011;35085;40.398;-3.702;2022-07-21T08:14:06;4.28;;;1.90;;
43554;SDS011;35085;40.398;-3.702;2022-07-21T08:24:16;7.28;;;2.10;;
43554;SDS011;35085;40.398;-3.702;2022-07-21T08:34:47;5.90;;;1.85;;
43554;SDS011;35085;40.398;-3.702;2022-07-21T08:44:56;3.17;;;1.60;;
43554;SDS011;35085;40.398;-3.702;2022-07-21T08:55:33;7.45;;;3.25;;
43554;SDS011;35085;40.398;-3.702;2022-07-21T09:05:43;5.63;;;1.87;;
43554;SDS011;35085;40.398;-3.702;2022-07-21T09:37:29;6.18;;;2.33;;
43554;SDS011;35085;40.398;-3.702;2022-07-21T09:47:38;7.53;;;2.00;;
43554;SDS011;35085;40.398;-3.702;2022-07-21T09:58:07;8.05;;;2.90;;
43554;SDS011;35085;40.398;-3.702;2022-07-21T10:08:17;5.40;;;2.77;;
43554;SDS011;35085;40.398;-3.702;2022-07-21T10:29:07;6.72;;;6.00;;
43554;SDS011;35085;40.398;-3.702;2022-07-21T10:39:38;6.78;;;2.25;;
43554;SDS011;35085;40.398;-3.702;2022-07-21T10:49:57;4.90;;;2.27;;
43554;SDS011;35085;40.398;-3.702;2022-07-21T11:00:29;9.10;;;2.58;;
43554;SDS011;35085;40.398;-3.702;2022-07-21T11:10:42;9.27;;;4.03;;
43554;SDS011;35085;40.398;-3.702;2022-07-21T11:21:15;13.43;;;2.25;;
43554;SDS011;35085;40.398;-3.702;2022-07-21T11:31:25;12.25;;;3.72;;
43554;SDS011;35085;40.398;-3.702;2022-07-21T11:42:00;7.32;;;2.80;;
43554;SDS011;35085;40.398;-3.702;2022-07-21T11:52:14;6.00;;;2.03;;
43554;SDS011;35085;40.398;-3.702;2022-07-21T12:02:44;6.97;;;1.88;;
43554;SDS011;35085;40.398;-3.702;2022-07-21T12:12:58;10.18;;;2.40;;
43554;SDS011;35085;40.398;-3.702;2022-07-21T12:23:29;6.18;;;2.67;;
43554;SDS011;35085;40.398;-3.702;2022-07-21T12:33:39;6.60;;;2.75;;
43554;SDS011;35085;40.398;-3.702;2022-07-21T12:44:10;10.23;;;2.20;;
43554;SDS011;35085;40.398;-3.702;2022-07-21T12:54:20;6.00;;;2.40;;
43554;SDS011;35085;40.398;-3.702;2022-07-21T13:04:50;9.40;;;2.45;;
43554;SDS011;35085;40.398;-3.702;2022-07-21T13:14:59;5.93;;;1.98;;
43554;SDS011;35085;40.398;-3.702;2022-07-21T13:25:31;5.13;;;2.40;;
43554;SDS011;35085;40.398;-3.702;2022-07-21T13:35:43;8.75;;;2.50;;
43554;SDS011;35085;40.398;-3.702;2022-07-21T13:46:14;13.65;;;4.63;;
43554;SDS011;35085;40.398;-3.702;2022-07-21T13:56:22;6.60;;;2.70;;
43554;SDS011;35085;40.398;-3.702;2022-07-21T14:06:51;6.78;;;2.65;;
43554;SDS011;35085;40.398;-3.702;2022-07-21T14:27:32;5.95;;;2.30;;
43554;SDS011;35085;40.398;-3.702;2022-07-21T14:37:40;8.52;;;2.35;;
43554;SDS011;35085;40.398;-3.702;2022-07-21T14:48:09;4.80;;;2.30;;
43554;SDS011;35085;40.398;-3.702;2022-07-21T14:58:18;7.57;;;2.25;;
43554;SDS011;35085;40.398;-3.702;2022-07-21T15:08:47;9.25;;;2.10;;
43554;SDS011;35085;40.398;-3.702;2022-07-21T15:18:55;3.17;;;2.13;;
43554;SDS011;35085;40.398;-3.702;2022-07-21T15:29:24;4.32;;;1.92;;
43554;SDS011;35085;40.398;-3.702;2022-07-21T15:39:34;5.25;;;2.38;;
43554;SDS011;35085;40.398;-3.702;2022-07-21T15:50:04;5.43;;;1.90;;
43554;SDS011;35085;40.398;-3.702;2022-07-21T16:00:22;7.60;;;2.17;;
43554;SDS011;35085;40.398;-3.702;2022-07-21T16:10:53;10.68;;;2.42;;
43554;SDS011;35085;40.398;-3.702;2022-07-21T16:21:02;6.32;;;2.28;;
43554;SDS011;35085;40.398;-3.702;2022-07-21T16:31:31;5.97;;;2.13;;
43554;SDS011;35085;40.398;-3.702;2022-07-21T16:52:11;8.68;;;2.10;;
43554;SDS011;35085;40.398;-3.702;2022-07-21T17:02:20;3.40;;;1.98;;
43554;SDS011;35085;40.398;-3.702;2022-07-21T17:12:50;7.57;;;2.38;;
43554;SDS011;35085;40.398;-3.702;2022-07-21T17:22:59;3.78;;;1.90;;
43554;SDS011;35085;40.398;-3.702;2022-07-21T17:33:28;4.38;;;1.98;;
43554;SDS011;35085;40.398;-3.702;2022-07-21T17:43:37;3.10;;;2.17;;
43554;SDS011;35085;40.398;-3.702;2022-07-21T17:54:07;4.57;;;2.30;;
43554;SDS011;35085;40.398;-3.702;2022-07-21T18:04:16;5.72;;;2.00;;
43554;SDS011;35085;40.398;-3.702;2022-07-21T18:14:45;6.05;;;2.75;;
43554;SDS011;35085;40.398;-3.702;2022-07-21T18:24:54;3.85;;;2.63;;
43554;SDS011;35085;40.398;-3.702;2022-07-21T18:35:25;4.72;;;2.10;;
43554;SDS011;35085;40.398;-3.702;2022-07-21T18:45:34;4.70;;;2.10;;
43554;SDS011;35085;40.398;-3.702;2022-07-21T18:56:07;6.80;;;2.40;;
43554;SDS011;35085;40.398;-3.702;2022-07-21T19:06:15;5.28;;;3.22;;
43554;SDS011;35085;40.398;-3.702;2022-07-21T19:16:45;6.32;;;2.80;;
43554;SDS011;35085;40.398;-3.702;2022-07-21T19:26:54;8.77;;;2.85;;
43554;SDS011;35085;40.398;-3.702;2022-07-21T19:37:24;4.82;;;2.60;;
43554;SDS011;35085;40.398;-3.702;2022-07-21T19:47:33;7.63;;;2.37;;
43554;SDS011;35085;40.398;-3.702;2022-07-21T19:58:01;8.13;;;3.92;;
43554;SDS011;35085;40.398;-3.702;2022-07-21T20:08:09;7.30;;;3.10;;
43554;SDS011;35085;40.398;-3.702;2022-07-21T20:18:39;10.18;;;3.78;;
43554;SDS011;35085;40.398;-3.702;2022-07-21T20:28:48;8.20;;;4.33;;
43554;SDS011;35085;40.398;-3.702;2022-07-21T20:39:18;4.72;;;3.38;;
43554;SDS011;35085;40.398;-3.702;2022-07-21T20:49:27;4.47;;;3.30;;
43554;SDS011;35085;40.398;-3.702;2022-07-21T20:59:57;6.53;;;3.70;;
43554;SDS011;35085;40.398;-3.702;2022-07-21T21:10:06;9.90;;;5.20;;
43554;SDS011;35085;40.398;-3.702;2022-07-21T21:20:36;9.23;;;6.05;;
43554;SDS011;35085;40.398;-3.702;2022-07-21T21:30:45;9.73;;;4.97;;
43554;SDS011;35085;40.398;-3.702;2022-07-21T21:41:15;10.98;;;4.85;;
43554;SDS011;35085;40.398;-3.702;2022-07-21T21:51:24;10.93;;;5.63;;
43554;SDS011;35085;40.398;-3.702;2022-07-21T22:01:54;16.10;;;4.00;;
43554;SDS011;35085;40.398;-3.702;2022-07-21T22:12:03;19.13;;;7.05;;
43554;SDS011;35085;40.398;-3.702;2022-07-21T22:22:33;18.35;;;3.33;;
43554;SDS011;35085;40.398;-3.702;2022-07-21T22:32:42;5.57;;;3.10;;
43554;SDS011;35085;40.398;-3.702;2022-07-21T22:43:11;11.43;;;3.03;;
43554;SDS011;35085;40.398;-3.702;2022-07-21T22:53:20;6.50;;;2.83;;
43554;SDS011;35085;40.398;-3.702;2022-07-21T23:03:50;8.30;;;2.80;;
43554;SDS011;35085;40.398;-3.702;2022-07-21T23:13:59;11.30;;;4.53;;
43554;SDS011;35085;40.398;-3.702;2022-07-21T23:24:29;7.93;;;3.25;;
43554;SDS011;35085;40.398;-3.702;2022-07-21T23:34:38;7.28;;;2.90;;
43554;SDS011;35085;40.398;-3.702;2022-07-21T23:45:07;9.93;;;2.58;;
43554;SDS011;35085;40.398;-3.702;2022-07-21T23:55:16;4.53;;;2.55;;
